Terminal Aerodrome Forecast
Issued by NWS

Home | Current Version | Previous Version | Text Only | Print | Product List | Glossary On
Versions: 1 2 3 4 5 6 7 8 9 10 11 12 13
878
FTUS45 KABQ 251720
TAFGUP
TAF
KGUP 251720Z 2518/2618 24018G28KT P6SM SCT200
     FM251900 24028G38KT P6SM SKC
     FM260200 24018G28KT P6SM SKC
     FM260400 22012KT P6SM SCT200=

USA.gov is the U.S. government's official web portal to all federal, state and local government web resources and services.